Azalea, Virginia
Current Conditions -  °F | °C
As of 3:54 AM on Saturday 01 Nov 2014 (Local Time) from KOFP Reporting Station
Clear Clear  
Wind Chill: 40°   Ceiling: Unl
Heat Index: 40°   Visibility: 10mi
Dew Point: 36°   Wind: 0mph
Humidity: 86%   Direction: NA
Pressure: 29.76"   Gusts: NA
Location:  37.619°N, 77.441°W
Report Text: KOFP 010754Z AUTO 00000KT 10SM CLR 04/02 A2976 RMK AO2 SLP078 T00440022
Loading
Personal Weather Stations






























Interactive Weather Map
Tropical Storm Tracking
New forecast layout! Learn more

10-Day Weather Forecast

Advertisements
Track Severe Weather on mobile